sensor_id;sensor_type;location;lat;lon;timestamp;pressure;altitude;pressure_sealevel;temperature;humidity
72438;BME280;60444;43.534;-5.674;2022-07-21T00:01:13;102169.81;;;22.04;74.03
72438;BME280;60444;43.534;-5.674;2022-07-21T00:03:38;102162.19;;;22.08;74.58
72438;BME280;60444;43.534;-5.674;2022-07-21T00:06:04;102167.06;;;22.04;71.93
72438;BME280;60444;43.534;-5.674;2022-07-21T00:08:30;102175.31;;;22.04;71.93
72438;BME280;60444;43.534;-5.674;2022-07-21T00:10:56;102161.09;;;21.98;73.53
72438;BME280;60444;43.534;-5.674;2022-07-21T00:13:22;102163.28;;;22.05;74.43
72438;BME280;60444;43.534;-5.674;2022-07-21T00:15:48;102177.72;;;22.09;75.02
72438;BME280;60444;43.534;-5.674;2022-07-21T00:18:16;102160.13;;;21.99;72.82
72438;BME280;60444;43.534;-5.674;2022-07-21T00:20:41;102148.44;;;21.95;74.12
72438;BME280;60444;43.534;-5.674;2022-07-21T00:23:07;102151.09;;;21.97;73.45
72438;BME280;60444;43.534;-5.674;2022-07-21T00:25:32;102149.66;;;21.91;72.37
72438;BME280;60444;43.534;-5.674;2022-07-21T00:27:58;102170.00;;;22.01;71.82
72438;BME280;60444;43.534;-5.674;2022-07-21T00:30:24;102163.97;;;21.96;71.90
72438;BME280;60444;43.534;-5.674;2022-07-21T00:32:49;102146.59;;;21.83;72.18
72438;BME280;60444;43.534;-5.674;2022-07-21T00:35:15;102141.19;;;21.82;72.37
72438;BME280;60444;43.534;-5.674;2022-07-21T00:37:41;102147.59;;;21.82;73.03
72438;BME280;60444;43.534;-5.674;2022-07-21T00:40:09;102162.44;;;21.92;72.25
72438;BME280;60444;43.534;-5.674;2022-07-21T00:42:35;102136.88;;;21.78;73.72
72438;BME280;60444;43.534;-5.674;2022-07-21T00:45:01;102149.13;;;21.86;74.55
72438;BME280;60444;43.534;-5.674;2022-07-21T00:47:29;102143.06;;;21.81;72.32
72438;BME280;60444;43.534;-5.674;2022-07-21T00:49:57;102132.25;;;21.78;72.89
72438;BME280;60444;43.534;-5.674;2022-07-21T00:52:24;102148.47;;;21.83;72.29
72438;BME280;60444;43.534;-5.674;2022-07-21T00:54:50;102150.00;;;21.87;72.72
72438;BME280;60444;43.534;-5.674;2022-07-21T00:57:15;102152.63;;;21.88;74.07
72438;BME280;60444;43.534;-5.674;2022-07-21T00:59:41;102148.00;;;21.89;72.67
72438;BME280;60444;43.534;-5.674;2022-07-21T01:02:08;102123.78;;;21.81;74.57
72438;BME280;60444;43.534;-5.674;2022-07-21T01:04:34;102142.94;;;21.95;74.23
72438;BME280;60444;43.534;-5.674;2022-07-21T01:07:02;102144.94;;;21.93;73.04
72438;BME280;60444;43.534;-5.674;2022-07-21T01:19:36;102120.34;;;21.78;73.20
72438;BME280;60444;43.534;-5.674;2022-07-21T01:22:04;102135.00;;;21.91;74.89
72438;BME280;60444;43.534;-5.674;2022-07-21T01:24:30;102144.81;;;21.95;75.28
72438;BME280;60444;43.534;-5.674;2022-07-21T01:26:56;102124.34;;;21.86;73.94
72438;BME280;60444;43.534;-5.674;2022-07-21T01:29:21;102130.59;;;21.88;74.11
72438;BME280;60444;43.534;-5.674;2022-07-21T01:31:48;102127.19;;;21.85;72.98
72438;BME280;60444;43.534;-5.674;2022-07-21T01:34:14;102116.72;;;21.90;73.84
72438;BME280;60444;43.534;-5.674;2022-07-21T01:36:40;102117.16;;;21.84;72.75
72438;BME280;60444;43.534;-5.674;2022-07-21T01:39:07;102123.34;;;21.87;73.32
72438;BME280;60444;43.534;-5.674;2022-07-21T01:41:51;102114.81;;;21.90;75.07
72438;BME280;60444;43.534;-5.674;2022-07-21T01:44:17;102102.75;;;21.80;75.08
72438;BME280;60444;43.534;-5.674;2022-07-21T01:46:46;102108.66;;;21.87;75.22
72438;BME280;60444;43.534;-5.674;2022-07-21T01:49:14;102107.25;;;21.81;73.72
72438;BME280;60444;43.534;-5.674;2022-07-21T01:51:40;102100.75;;;21.82;75.02
72438;BME280;60444;43.534;-5.674;2022-07-21T01:54:06;102081.38;;;21.71;74.59
72438;BME280;60444;43.534;-5.674;2022-07-21T01:56:34;102117.56;;;21.90;74.42
72438;BME280;60444;43.534;-5.674;2022-07-21T01:59:00;102117.38;;;21.93;74.57
72438;BME280;60444;43.534;-5.674;2022-07-21T02:01:26;102112.06;;;21.90;74.70
72438;BME280;60444;43.534;-5.674;2022-07-21T02:03:54;102115.38;;;21.95;74.84
72438;BME280;60444;43.534;-5.674;2022-07-21T02:06:20;102124.50;;;21.96;75.29
72438;BME280;60444;43.534;-5.674;2022-07-21T02:08:46;102111.63;;;21.96;75.54
72438;BME280;60444;43.534;-5.674;2022-07-21T02:11:12;102103.16;;;21.87;75.30
72438;BME280;60444;43.534;-5.674;2022-07-21T02:13:39;102104.34;;;21.95;75.26
72438;BME280;60444;43.534;-5.674;2022-07-21T02:16:05;102098.28;;;21.90;75.61
72438;BME280;60444;43.534;-5.674;2022-07-21T02:18:30;102084.09;;;21.84;75.44
72438;BME280;60444;43.534;-5.674;2022-07-21T02:20:56;102098.72;;;21.97;75.37
72438;BME280;60444;43.534;-5.674;2022-07-21T02:23:23;102100.59;;;21.96;75.13
72438;BME280;60444;43.534;-5.674;2022-07-21T02:25:49;102077.50;;;21.86;75.78
72438;BME280;60444;43.534;-5.674;2022-07-21T02:28:14;102095.06;;;21.96;74.49
72438;BME280;60444;43.534;-5.674;2022-07-21T02:30:40;102082.00;;;21.87;75.52
72438;BME280;60444;43.534;-5.674;2022-07-21T02:33:06;102075.59;;;21.87;75.79
72438;BME280;60444;43.534;-5.674;2022-07-21T02:35:32;102072.84;;;21.87;75.29
72438;BME280;60444;43.534;-5.674;2022-07-21T02:37:58;102089.69;;;21.95;75.18
72438;BME280;60444;43.534;-5.674;2022-07-21T02:40:23;102069.25;;;21.86;75.94
72438;BME280;60444;43.534;-5.674;2022-07-21T02:42:49;102086.81;;;21.96;75.41
72438;BME280;60444;43.534;-5.674;2022-07-21T02:45:15;102080.25;;;21.86;74.69
72438;BME280;60444;43.534;-5.674;2022-07-21T02:48:08;102043.06;;;21.68;75.39
72438;BME280;60444;43.534;-5.674;2022-07-21T02:50:35;102090.78;;;21.92;75.75
72438;BME280;60444;43.534;-5.674;2022-07-21T02:53:05;102078.16;;;21.90;75.60
72438;BME280;60444;43.534;-5.674;2022-07-21T02:55:31;102075.97;;;21.82;75.80
72438;BME280;60444;43.534;-5.674;2022-07-21T03:00:29;102097.31;;;21.91;76.00
72438;BME280;60444;43.534;-5.674;2022-07-21T03:02:54;102072.66;;;21.77;75.42
72438;BME280;60444;43.534;-5.674;2022-07-21T03:05:20;102091.03;;;21.89;75.83
72438;BME280;60444;43.534;-5.674;2022-07-21T03:07:45;102064.59;;;21.74;76.25
72438;BME280;60444;43.534;-5.674;2022-07-21T03:10:11;102088.03;;;21.92;76.02
72438;BME280;60444;43.534;-5.674;2022-07-21T03:12:36;102065.16;;;21.79;75.56
72438;BME280;60444;43.534;-5.674;2022-07-21T03:15:02;102063.38;;;21.78;74.77
72438;BME280;60444;43.534;-5.674;2022-07-21T03:17:28;102082.00;;;21.87;75.64
72438;BME280;60444;43.534;-5.674;2022-07-21T03:19:53;102074.97;;;21.83;75.41
72438;BME280;60444;43.534;-5.674;2022-07-21T03:22:19;102071.66;;;21.78;75.15
72438;BME280;60444;43.534;-5.674;2022-07-21T03:24:44;102056.47;;;21.73;75.67
72438;BME280;60444;43.534;-5.674;2022-07-21T03:27:10;102078.22;;;21.88;75.94
72438;BME280;60444;43.534;-5.674;2022-07-21T03:29:35;102052.34;;;21.78;75.65
72438;BME280;60444;43.534;-5.674;2022-07-21T03:32:01;102076.81;;;21.83;75.58
72438;BME280;60444;43.534;-5.674;2022-07-21T03:34:27;102048.31;;;21.71;75.99
72438;BME280;60444;43.534;-5.674;2022-07-21T03:36:53;102062.19;;;21.82;75.79
72438;BME280;60444;43.534;-5.674;2022-07-21T03:39:18;102043.56;;;21.73;76.15
72438;BME280;60444;43.534;-5.674;2022-07-21T03:41:44;102053.28;;;21.79;75.84
72438;BME280;60444;43.534;-5.674;2022-07-21T03:44:09;102059.31;;;21.84;76.48
72438;BME280;60444;43.534;-5.674;2022-07-21T03:46:35;102058.44;;;21.83;76.47
72438;BME280;60444;43.534;-5.674;2022-07-21T03:49:00;102054.69;;;21.84;76.29
72438;BME280;60444;43.534;-5.674;2022-07-21T03:51:26;102044.22;;;21.77;76.07
72438;BME280;60444;43.534;-5.674;2022-07-21T03:53:51;102033.41;;;21.74;75.83
72438;BME280;60444;43.534;-5.674;2022-07-21T03:56:17;102054.13;;;21.79;75.71
72438;BME280;60444;43.534;-5.674;2022-07-21T03:58:42;102042.16;;;21.67;76.08
72438;BME280;60444;43.534;-5.674;2022-07-21T04:01:08;102044.44;;;21.74;76.13
72438;BME280;60444;43.534;-5.674;2022-07-21T04:03:34;102050.81;;;21.74;76.38
72438;BME280;60444;43.534;-5.674;2022-07-21T04:06:00;102063.28;;;21.80;76.45
72438;BME280;60444;43.534;-5.674;2022-07-21T04:08:26;102067.69;;;21.82;76.01
72438;BME280;60444;43.534;-5.674;2022-07-21T04:10:52;102077.72;;;21.83;76.09
72438;BME280;60444;43.534;-5.674;2022-07-21T04:13:18;102048.97;;;21.75;76.35
72438;BME280;60444;43.534;-5.674;2022-07-21T04:15:43;102053.28;;;21.79;76.68
72438;BME280;60444;43.534;-5.674;2022-07-21T04:18:09;102062.06;;;21.84;76.18
72438;BME280;60444;43.534;-5.674;2022-07-21T04:20:35;102058.56;;;21.82;76.10
72438;BME280;60444;43.534;-5.674;2022-07-21T04:23:02;102055.91;;;21.80;75.81
72438;BME280;60444;43.534;-5.674;2022-07-21T04:25:28;102051.84;;;21.73;76.23
72438;BME280;60444;43.534;-5.674;2022-07-21T04:27:54;102052.59;;;21.75;76.50
72438;BME280;60444;43.534;-5.674;2022-07-21T04:30:23;102062.41;;;21.79;76.11
72438;BME280;60444;43.534;-5.674;2022-07-21T04:32:49;102056.91;;;21.79;76.97
72438;BME280;60444;43.534;-5.674;2022-07-21T04:35:16;102061.31;;;21.82;76.60
72438;BME280;60444;43.534;-5.674;2022-07-21T04:37:41;102061.63;;;21.77;75.69
72438;BME280;60444;43.534;-5.674;2022-07-21T04:40:09;102060.97;;;21.74;76.33
72438;BME280;60444;43.534;-5.674;2022-07-21T04:42:35;102046.66;;;21.68;76.61
72438;BME280;60444;43.534;-5.674;2022-07-21T04:45:02;102062.50;;;21.78;76.72
72438;BME280;60444;43.534;-5.674;2022-07-21T04:47:27;102044.91;;;21.67;76.74
72438;BME280;60444;43.534;-5.674;2022-07-21T04:49:53;102060.09;;;21.73;77.02
72438;BME280;60444;43.534;-5.674;2022-07-21T04:52:19;102029.50;;;21.65;77.07
72438;BME280;60444;43.534;-5.674;2022-07-21T04:54:45;102045.31;;;21.74;76.76
72438;BME280;60444;43.534;-5.674;2022-07-21T04:57:11;102035.00;;;21.65;76.66
72438;BME280;60444;43.534;-5.674;2022-07-21T04:59:37;102034.78;;;21.68;76.87
72438;BME280;60444;43.534;-5.674;2022-07-21T05:02:06;102047.31;;;21.72;77.07
72438;BME280;60444;43.534;-5.674;2022-07-21T05:04:32;102042.69;;;21.73;76.91
72438;BME280;60444;43.534;-5.674;2022-07-21T05:06:57;102031.53;;;21.74;76.92
72438;BME280;60444;43.534;-5.674;2022-07-21T05:09:23;102038.50;;;21.80;76.84
72438;BME280;60444;43.534;-5.674;2022-07-21T05:11:49;102037.19;;;21.73;76.51
72438;BME280;60444;43.534;-5.674;2022-07-21T05:14:14;102050.41;;;21.80;76.75
72438;BME280;60444;43.534;-5.674;2022-07-21T05:16:40;102029.81;;;21.73;76.73
72438;BME280;60444;43.534;-5.674;2022-07-21T05:19:06;102053.94;;;21.82;76.50
72438;BME280;60444;43.534;-5.674;2022-07-21T05:21:31;102030.13;;;21.68;76.33
72438;BME280;60444;43.534;-5.674;2022-07-21T05:23:57;102051.28;;;21.81;76.55
72438;BME280;60444;43.534;-5.674;2022-07-21T05:26:23;102046.84;;;21.78;76.32
72438;BME280;60444;43.534;-5.674;2022-07-21T05:28:48;102056.13;;;21.77;76.52
72438;BME280;60444;43.534;-5.674;2022-07-21T05:31:14;102047.09;;;21.75;75.84
72438;BME280;60444;43.534;-5.674;2022-07-21T05:33:40;102049.28;;;21.70;76.60
72438;BME280;60444;43.534;-5.674;2022-07-21T05:36:05;102038.75;;;21.64;76.35
72438;BME280;60444;43.534;-5.674;2022-07-21T05:38:31;102038.22;;;21.59;76.24
72438;BME280;60444;43.534;-5.674;2022-07-21T05:40:57;102046.25;;;21.62;76.91
72438;BME280;60444;43.534;-5.674;2022-07-21T05:43:29;102054.16;;;21.66;77.05
72438;BME280;60444;43.534;-5.674;2022-07-21T05:45:55;102040.75;;;21.62;76.94
72438;BME280;60444;43.534;-5.674;2022-07-21T05:48:20;102025.88;;;21.52;77.21
72438;BME280;60444;43.534;-5.674;2022-07-21T05:50:46;102032.59;;;21.60;77.29
72438;BME280;60444;43.534;-5.674;2022-07-21T05:53:11;102032.38;;;21.63;77.26
72438;BME280;60444;43.534;-5.674;2022-07-21T05:55:37;102031.06;;;21.56;77.02
72438;BME280;60444;43.534;-5.674;2022-07-21T05:58:02;102028.44;;;21.55;77.00
72438;BME280;60444;43.534;-5.674;2022-07-21T06:00:28;102015.97;;;21.62;77.04
72438;BME280;60444;43.534;-5.674;2022-07-21T06:02:54;102033.31;;;21.75;77.15
72438;BME280;60444;43.534;-5.674;2022-07-21T06:05:19;102021.53;;;21.73;76.87
72438;BME280;60444;43.534;-5.674;2022-07-21T06:07:46;102022.38;;;21.74;77.07
72438;BME280;60444;43.534;-5.674;2022-07-21T06:10:13;102027.91;;;21.74;76.64
72438;BME280;60444;43.534;-5.674;2022-07-21T06:12:39;102030.09;;;21.81;76.92
72438;BME280;60444;43.534;-5.674;2022-07-21T06:15:05;102025.38;;;21.83;77.23
72438;BME280;60444;43.534;-5.674;2022-07-21T06:17:38;102007.88;;;21.72;76.37
72438;BME280;60444;43.534;-5.674;2022-07-21T06:20:06;102007.97;;;21.70;76.42
72438;BME280;60444;43.534;-5.674;2022-07-21T06:22:31;102013.78;;;21.78;76.43
72438;BME280;60444;43.534;-5.674;2022-07-21T06:24:57;102013.56;;;21.81;76.63
72438;BME280;60444;43.534;-5.674;2022-07-21T06:27:22;101990.22;;;21.74;76.56
72438;BME280;60444;43.534;-5.674;2022-07-21T06:29:48;101994.00;;;21.73;76.40
72438;BME280;60444;43.534;-5.674;2022-07-21T06:32:14;102019.28;;;21.91;76.08
72438;BME280;60444;43.534;-5.674;2022-07-21T06:34:39;102001.72;;;21.81;76.55
72438;BME280;60444;43.534;-5.674;2022-07-21T06:37:04;102013.25;;;21.86;76.69
72438;BME280;60444;43.534;-5.674;2022-07-21T06:39:30;102010.50;;;21.86;76.18
72438;BME280;60444;43.534;-5.674;2022-07-21T06:41:56;102037.22;;;21.96;76.23
72438;BME280;60444;43.534;-5.674;2022-07-21T06:44:21;102013.25;;;21.86;76.21
72438;BME280;60444;43.534;-5.674;2022-07-21T06:46:46;102005.97;;;21.85;76.08
72438;BME280;60444;43.534;-5.674;2022-07-21T06:49:12;102001.22;;;21.87;76.09
72438;BME280;60444;43.534;-5.674;2022-07-21T06:51:38;102009.13;;;21.91;76.24
72438;BME280;60444;43.534;-5.674;2022-07-21T06:54:03;102025.31;;;21.96;76.16
72438;BME280;60444;43.534;-5.674;2022-07-21T06:56:29;102016.41;;;21.92;75.61
72438;BME280;60444;43.534;-5.674;2022-07-21T06:58:54;102017.91;;;21.96;76.00
72438;BME280;60444;43.534;-5.674;2022-07-21T07:01:20;102032.97;;;22.03;75.85
72438;BME280;60444;43.534;-5.674;2022-07-21T07:03:45;102013.63;;;21.92;75.46
72438;BME280;60444;43.534;-5.674;2022-07-21T07:06:13;102013.41;;;21.95;76.16
72438;BME280;60444;43.534;-5.674;2022-07-21T07:08:39;102028.09;;;22.07;75.88
72438;BME280;60444;43.534;-5.674;2022-07-21T07:11:05;102028.75;;;22.10;75.59
72438;BME280;60444;43.534;-5.674;2022-07-21T07:13:31;102027.66;;;22.13;75.49
72438;BME280;60444;43.534;-5.674;2022-07-21T07:15:59;102036.03;;;22.11;74.96
72438;BME280;60444;43.534;-5.674;2022-07-21T07:18:25;102009.69;;;22.07;77.24
72438;BME280;60444;43.534;-5.674;2022-07-21T07:20:51;102029.91;;;22.19;75.71
72438;BME280;60444;43.534;-5.674;2022-07-21T07:23:17;102027.06;;;22.20;75.55
72438;BME280;60444;43.534;-5.674;2022-07-21T07:25:43;102016.50;;;22.14;75.56
72438;BME280;60444;43.534;-5.674;2022-07-21T07:28:08;102015.47;;;22.15;75.61
72438;BME280;60444;43.534;-5.674;2022-07-21T07:30:35;102011.38;;;22.21;75.41
72438;BME280;60444;43.534;-5.674;2022-07-21T07:33:03;102030.50;;;22.35;75.20
72438;BME280;60444;43.534;-5.674;2022-07-21T07:35:29;102005.38;;;22.27;74.67
72438;BME280;60444;43.534;-5.674;2022-07-21T07:37:55;102030.38;;;22.36;75.07
72438;BME280;60444;43.534;-5.674;2022-07-21T07:40:22;102023.34;;;22.43;74.28
72438;BME280;60444;43.534;-5.674;2022-07-21T07:42:48;102012.53;;;22.40;73.95
72438;BME280;60444;43.534;-5.674;2022-07-21T07:45:14;102021.09;;;22.48;73.61
72438;BME280;60444;43.534;-5.674;2022-07-21T07:47:40;102024.50;;;22.52;73.37
72438;BME280;60444;43.534;-5.674;2022-07-21T07:50:08;102023.16;;;22.57;71.73
72438;BME280;60444;43.534;-5.674;2022-07-21T07:52:35;102023.03;;;22.59;72.37
72438;BME280;60444;43.534;-5.674;2022-07-21T07:55:01;102023.78;;;22.61;71.92
72438;BME280;60444;43.534;-5.674;2022-07-21T07:57:30;102011.38;;;22.55;73.32
72438;BME280;60444;43.534;-5.674;2022-07-21T07:59:55;102007.50;;;22.58;71.24
72438;BME280;60444;43.534;-5.674;2022-07-21T08:02:21;102020.31;;;22.70;70.95
72438;BME280;60444;43.534;-5.674;2022-07-21T08:04:47;102031.00;;;22.75;72.51
72438;BME280;60444;43.534;-5.674;2022-07-21T08:07:12;102004.13;;;22.66;71.32
72438;BME280;60444;43.534;-5.674;2022-07-21T08:09:39;102015.81;;;22.69;73.09
72438;BME280;60444;43.534;-5.674;2022-07-21T08:12:05;102000.09;;;22.70;71.24
72438;BME280;60444;43.534;-5.674;2022-07-21T08:14:30;101994.84;;;22.78;71.02
72438;BME280;60444;43.534;-5.674;2022-07-21T08:16:56;101998.13;;;22.83;70.85
72438;BME280;60444;43.534;-5.674;2022-07-21T08:19:24;102022.84;;;22.95;72.32
72438;BME280;60444;43.534;-5.674;2022-07-21T08:21:50;102008.66;;;22.89;72.50
72438;BME280;60444;43.534;-5.674;2022-07-21T08:24:15;101980.56;;;22.84;70.68
72438;BME280;60444;43.534;-5.674;2022-07-21T08:26:41;101987.84;;;22.85;71.75
72438;BME280;60444;43.534;-5.674;2022-07-21T08:29:06;101993.34;;;22.96;71.39
72438;BME280;60444;43.534;-5.674;2022-07-21T08:31:32;101989.56;;;22.97;71.46
72438;BME280;60444;43.534;-5.674;2022-07-21T08:33:57;101991.22;;;22.99;71.35
72438;BME280;60444;43.534;-5.674;2022-07-21T08:36:23;101993.84;;;23.12;71.28
72438;BME280;60444;43.534;-5.674;2022-07-21T08:38:49;102004.91;;;23.12;68.33
72438;BME280;60444;43.534;-5.674;2022-07-21T08:41:14;101993.59;;;23.15;67.80
72438;BME280;60444;43.534;-5.674;2022-07-21T08:43:40;101988.81;;;23.06;67.47
72438;BME280;60444;43.534;-5.674;2022-07-21T08:46:06;101998.88;;;23.18;67.58
72438;BME280;60444;43.534;-5.674;2022-07-21T08:48:32;101976.16;;;23.14;67.01
72438;BME280;60444;43.534;-5.674;2022-07-21T08:50:58;101971.41;;;23.05;67.72
72438;BME280;60444;43.534;-5.674;2022-07-21T08:53:24;101996.09;;;23.29;68.42
72438;BME280;60444;43.534;-5.674;2022-07-21T08:55:50;101977.16;;;23.13;69.20
72438;BME280;60444;43.534;-5.674;2022-07-21T08:58:16;101993.44;;;23.27;69.01
72438;BME280;60444;43.534;-5.674;2022-07-21T09:00:44;102001.00;;;23.36;65.26
72438;BME280;60444;43.534;-5.674;2022-07-21T09:03:24;101983.56;;;23.25;68.64
72438;BME280;60444;43.534;-5.674;2022-07-21T09:08:47;101981.41;;;23.17;70.01
72438;BME280;60444;43.534;-5.674;2022-07-21T09:11:26;102001.63;;;23.29;67.62
72438;BME280;60444;43.534;-5.674;2022-07-21T09:14:06;101998.22;;;23.36;69.28
72438;BME280;60444;43.534;-5.674;2022-07-21T09:16:40;102003.88;;;23.46;70.10
72438;BME280;60444;43.534;-5.674;2022-07-21T09:19:07;101990.56;;;23.40;70.67
72438;BME280;60444;43.534;-5.674;2022-07-21T09:21:40;102004.38;;;23.40;70.69
72438;BME280;60444;43.534;-5.674;2022-07-21T09:24:13;101977.28;;;23.23;70.76
72438;BME280;60444;43.534;-5.674;2022-07-21T09:29:24;101999.00;;;23.38;70.87
72438;BME280;60444;43.534;-5.674;2022-07-21T09:31:49;101984.28;;;23.38;70.67
72438;BME280;60444;43.534;-5.674;2022-07-21T09:34:15;101997.59;;;23.44;70.83
72438;BME280;60444;43.534;-5.674;2022-07-21T09:37:01;101989.44;;;23.42;71.19
72438;BME280;60444;43.534;-5.674;2022-07-21T09:42:25;101982.97;;;23.32;71.41
72438;BME280;60444;43.534;-5.674;2022-07-21T09:47:26;101990.22;;;23.33;71.41
72438;BME280;60444;43.534;-5.674;2022-07-21T09:49:52;101987.19;;;23.36;71.35
72438;BME280;60444;43.534;-5.674;2022-07-21T09:54:45;101974.91;;;23.29;71.37
72438;BME280;60444;43.534;-5.674;2022-07-21T09:57:11;101983.16;;;23.40;71.16
72438;BME280;60444;43.534;-5.674;2022-07-21T09:59:38;102000.50;;;23.42;71.19
72438;BME280;60444;43.534;-5.674;2022-07-21T10:02:04;101995.72;;;23.44;70.79
72438;BME280;60444;43.534;-5.674;2022-07-21T10:04:30;102003.88;;;23.46;70.65
72438;BME280;60444;43.534;-5.674;2022-07-21T10:06:57;101982.91;;;23.43;70.03
72438;BME280;60444;43.534;-5.674;2022-07-21T10:09:24;101988.16;;;23.57;70.58
72438;BME280;60444;43.534;-5.674;2022-07-21T10:11:50;101969.59;;;23.48;70.49
72438;BME280;60444;43.534;-5.674;2022-07-21T10:14:16;101993.16;;;23.63;70.18
72438;BME280;60444;43.534;-5.674;2022-07-21T10:16:42;101958.66;;;23.47;70.05
72438;BME280;60444;43.534;-5.674;2022-07-21T10:19:31;101988.25;;;23.67;70.22
72438;BME280;60444;43.534;-5.674;2022-07-21T10:24:43;101973.47;;;23.57;69.61
72438;BME280;60444;43.534;-5.674;2022-07-21T10:27:12;101979.56;;;23.72;69.60
72438;BME280;60444;43.534;-5.674;2022-07-21T10:29:56;101982.94;;;23.75;66.60
72438;BME280;60444;43.534;-5.674;2022-07-21T10:32:25;101976.25;;;23.78;67.23
72438;BME280;60444;43.534;-5.674;2022-07-21T10:34:56;101970.13;;;23.74;69.18
72438;BME280;60444;43.534;-5.674;2022-07-21T10:45:35;101947.25;;;23.51;70.48
72438;BME280;60444;43.534;-5.674;2022-07-21T10:48:06;101965.66;;;23.62;69.20
72438;BME280;60444;43.534;-5.674;2022-07-21T10:50:40;101965.53;;;23.63;70.00
72438;BME280;60444;43.534;-5.674;2022-07-21T10:53:17;101967.03;;;23.67;67.63
72438;BME280;60444;43.534;-5.674;2022-07-21T10:56:01;101956.09;;;23.66;70.79
72438;BME280;60444;43.534;-5.674;2022-07-21T10:58:30;101978.56;;;23.73;70.77
72438;BME280;60444;43.534;-5.674;2022-07-21T11:03:36;101977.16;;;23.78;71.42
72438;BME280;60444;43.534;-5.674;2022-07-21T11:08:35;101967.94;;;23.89;70.33
72438;BME280;60444;43.534;-5.674;2022-07-21T11:11:17;101951.53;;;23.76;70.53
72438;BME280;60444;43.534;-5.674;2022-07-21T11:14:12;101967.81;;;23.90;71.07
72438;BME280;60444;43.534;-5.674;2022-07-21T11:19:45;101961.59;;;23.98;70.62
72438;BME280;60444;43.534;-5.674;2022-07-21T11:22:24;101964.78;;;24.04;70.69
72438;BME280;60444;43.534;-5.674;2022-07-21T11:27:20;101939.50;;;23.98;70.63
72438;BME280;60444;43.534;-5.674;2022-07-21T11:29:48;101958.63;;;24.01;70.71
72438;BME280;60444;43.534;-5.674;2022-07-21T11:32:18;101960.38;;;23.91;71.58
72438;BME280;60444;43.534;-5.674;2022-07-21T11:34:58;101951.75;;;23.84;71.75
72438;BME280;60444;43.534;-5.674;2022-07-21T11:37:30;101946.50;;;23.81;72.21
72438;BME280;60444;43.534;-5.674;2022-07-21T11:39:58;101925.09;;;23.62;72.74
72438;BME280;60444;43.534;-5.674;2022-07-21T11:42:25;101929.47;;;23.65;72.32
72438;BME280;60444;43.534;-5.674;2022-07-21T11:44:52;101936.59;;;23.79;72.46
72438;BME280;60444;43.534;-5.674;2022-07-21T11:47:17;101943.09;;;23.78;72.56
72438;BME280;60444;43.534;-5.674;2022-07-21T11:49:45;101933.81;;;23.79;72.41
72438;BME280;60444;43.534;-5.674;2022-07-21T11:52:15;101929.56;;;23.75;72.63
72438;BME280;60444;43.534;-5.674;2022-07-21T11:54:50;101941.63;;;23.74;72.04
72438;BME280;60444;43.534;-5.674;2022-07-21T11:57:18;101935.22;;;23.73;72.81
72438;BME280;60444;43.534;-5.674;2022-07-21T11:59:44;101917.81;;;23.61;72.98
72438;BME280;60444;43.534;-5.674;2022-07-21T12:02:27;101920.19;;;23.66;72.99
72438;BME280;60444;43.534;-5.674;2022-07-21T12:05:07;101926.31;;;23.70;73.20
72438;BME280;60444;43.534;-5.674;2022-07-21T12:07:42;101927.22;;;23.70;73.22
72438;BME280;60444;43.534;-5.674;2022-07-21T12:10:09;101932.00;;;23.68;72.87
72438;BME280;60444;43.534;-5.674;2022-07-21T12:15:32;101925.91;;;23.74;73.17
72438;BME280;60444;43.534;-5.674;2022-07-21T12:18:21;101921.78;;;23.68;72.76
72438;BME280;60444;43.534;-5.674;2022-07-21T12:20:49;101909.66;;;23.60;72.84
72438;BME280;60444;43.534;-5.674;2022-07-21T12:23:41;101914.66;;;23.66;73.23
72438;BME280;60444;43.534;-5.674;2022-07-21T12:26:21;101908.38;;;23.64;73.35
72438;BME280;60444;43.534;-5.674;2022-07-21T12:28:51;101904.34;;;23.68;73.05
72438;BME280;60444;43.534;-5.674;2022-07-21T12:31:22;101895.84;;;23.60;73.07
72438;BME280;60444;43.534;-5.674;2022-07-21T12:33:55;101902.72;;;23.65;72.99
72438;BME280;60444;43.534;-5.674;2022-07-21T12:36:25;101900.22;;;23.62;72.96
72438;BME280;60444;43.534;-5.674;2022-07-21T12:38:51;101893.16;;;23.70;73.35
72438;BME280;60444;43.534;-5.674;2022-07-21T12:41:19;101902.19;;;23.72;72.90
72438;BME280;60444;43.534;-5.674;2022-07-21T12:43:58;101892.28;;;23.69;73.36
72438;BME280;60444;43.534;-5.674;2022-07-21T12:46:42;101876.78;;;23.57;73.34
72438;BME280;60444;43.534;-5.674;2022-07-21T12:49:10;101895.50;;;23.74;73.50
72438;BME280;60444;43.534;-5.674;2022-07-21T12:51:36;101893.34;;;23.78;73.47
72438;BME280;60444;43.534;-5.674;2022-07-21T12:54:02;101868.56;;;23.67;73.34
72438;BME280;60444;43.534;-5.674;2022-07-21T12:56:30;101881.97;;;23.71;73.99
72438;BME280;60444;43.534;-5.674;2022-07-21T12:58:57;101900.94;;;23.76;73.97
72438;BME280;60444;43.534;-5.674;2022-07-21T13:01:26;101889.13;;;23.74;73.25
72438;BME280;60444;43.534;-5.674;2022-07-21T13:03:52;101899.16;;;23.75;73.69
72438;BME280;60444;43.534;-5.674;2022-07-21T13:06:18;101892.56;;;23.66;73.85
72438;BME280;60444;43.534;-5.674;2022-07-21T13:08:45;101898.41;;;23.73;74.66
72438;BME280;60444;43.534;-5.674;2022-07-21T13:11:14;101895.03;;;23.69;75.14
72438;BME280;60444;43.534;-5.674;2022-07-21T13:13:39;101896.06;;;23.68;74.93
72438;BME280;60444;43.534;-5.674;2022-07-21T13:16:08;101890.59;;;23.57;75.55
72438;BME280;60444;43.534;-5.674;2022-07-21T13:18:34;101893.34;;;23.57;75.64
72438;BME280;60444;43.534;-5.674;2022-07-21T13:21:01;101896.72;;;23.60;75.67
72438;BME280;60444;43.534;-5.674;2022-07-21T13:23:26;101899.75;;;23.57;75.71
72438;BME280;60444;43.534;-5.674;2022-07-21T13:25:52;101898.00;;;23.56;75.53
72438;BME280;60444;43.534;-5.674;2022-07-21T13:28:18;101892.59;;;23.55;75.38
72438;BME280;60444;43.534;-5.674;2022-07-21T13:30:48;101882.56;;;23.54;75.50
72438;BME280;60444;43.534;-5.674;2022-07-21T13:33:14;101857.91;;;23.41;75.13